Time;durP1;ratioP1;P1;durP2;ratioP2;P2;SDS_P1;SDS_P2;PMS_P1;PMS_P2;Temp;Humidity;BMP_temperature;BMP_pressure;BME280_temperature;BME280_humidity;BME280_pressure;Samples;Min_cycle;Max_cycle;Signal;HPM_P1;HPM_P2
2021/12/07 00:01:30;;;;;;;23.07;12.83;;;0.70;99.90;;;;;;5032182;28;21015;-74
2021/12/07 00:03:57;;;;;;;24.93;12.90;;;0.70;99.90;;;;;;5032904;28;20450;-74
2021/12/07 00:06:25;;;;;;;19.47;11.47;;;0.70;99.90;;;;;;5031193;28;20465;-74
2021/12/07 00:08:56;;;;;;;21.83;11.90;;;0.50;99.90;;;;;;5027239;28;20589;-74
2021/12/07 00:11:24;;;;;;;18.60;10.80;;;0.50;99.90;;;;;;5042319;28;20658;-73
2021/12/07 00:13:51;;;;;;;21.43;12.13;;;0.50;99.90;;;;;;5012704;28;20540;-73
2021/12/07 00:16:19;;;;;;;21.43;11.97;;;0.40;99.90;;;;;;5027311;28;20938;-73
2021/12/07 00:18:47;;;;;;;20.60;11.83;;;0.40;99.90;;;;;;5020177;28;20470;-74
2021/12/07 00:21:17;;;;;;;19.73;10.97;;;0.40;99.90;;;;;;5040523;28;20948;-73
2021/12/07 00:23:46;;;;;;;17.83;10.57;;;0.50;99.90;;;;;;5012425;28;20454;-73
2021/12/07 00:26:14;;;;;;;18.77;11.00;;;0.40;99.90;;;;;;5012323;28;20453;-73
2021/12/07 00:28:42;;;;;;;19.33;10.80;;;0.40;99.90;;;;;;5017482;28;20489;-73
2021/12/07 00:31:15;;;;;;;18.90;10.17;;;0.40;99.90;;;;;;5031615;28;20464;-74
2021/12/07 00:33:48;;;;;;;17.67;9.73;;;0.40;99.90;;;;;;5034229;28;20905;-73
2021/12/07 00:36:15;;;;;;;17.53;9.47;;;0.40;99.90;;;;;;5034809;28;20481;-73
2021/12/07 00:38:43;;;;;;;18.90;10.67;;;0.40;99.90;;;;;;5033196;28;20477;-71
2021/12/07 00:41:09;;;;;;;16.23;7.93;;;0.40;99.90;;;;;;5026717;28;20457;-71
2021/12/07 00:43:37;;;;;;;17.37;10.63;;;0.40;99.90;;;;;;5025463;28;20450;-73
2021/12/07 00:46:07;;;;;;;17.50;10.63;;;0.40;99.90;;;;;;5033924;28;20527;-72
2021/12/07 00:48:33;;;;;;;21.80;11.20;;;0.40;99.90;;;;;;5026537;28;20488;-72
2021/12/07 00:51:00;;;;;;;16.63;9.77;;;0.30;99.90;;;;;;5015161;28;20458;-72
2021/12/07 00:53:28;;;;;;;17.50;9.70;;;0.30;99.90;;;;;;5016044;28;20454;-72
2021/12/07 00:55:59;;;;;;;19.70;10.07;;;0.30;99.90;;;;;;5014956;28;20550;-72
2021/12/07 00:58:27;;;;;;;16.93;10.20;;;0.40;99.90;;;;;;5023823;28;20489;-72
2021/12/07 01:00:59;;;;;;;18.77;10.47;;;0.40;99.90;;;;;;5034275;28;20492;-72
2021/12/07 01:03:28;;;;;;;26.93;13.13;;;0.40;99.90;;;;;;5034046;28;20453;-72
2021/12/07 01:06:05;;;;;;;14.50;8.90;;;0.50;99.90;;;;;;5019973;28;20508;-72
2021/12/07 01:08:56;;;;;;;15.30;9.27;;;0.40;99.90;;;;;;5022556;28;20512;-72
2021/12/07 01:25:11;;;;;;;14.40;9.83;;;0.40;99.90;;;;;;5033583;28;20432;-71
2021/12/07 01:27:38;;;;;;;17.57;9.83;;;0.40;99.90;;;;;;5025451;28;20509;-72
2021/12/07 01:30:11;;;;;;;18.77;8.90;;;0.40;99.90;;;;;;5020107;28;20489;-72
2021/12/07 01:32:56;;;;;;;14.67;9.53;;;0.40;99.90;;;;;;5033115;28;20547;-72
2021/12/07 01:38:36;;;;;;;15.97;9.27;;;0.40;99.90;;;;;;5028478;28;20971;-72
2021/12/07 01:41:19;;;;;;;12.83;7.90;;;0.40;99.90;;;;;;5033944;28;20452;-72
2021/12/07 02:00:05;;;;;;;13.50;8.10;;;0.30;99.90;;;;;;5014086;28;20461;-72
2021/12/07 02:02:32;;;;;;;15.20;8.37;;;0.30;99.90;;;;;;5014384;28;20496;-73
2021/12/07 02:05:00;;;;;;;14.43;8.40;;;0.30;99.90;;;;;;5014532;28;20526;-72
2021/12/07 02:07:27;;;;;;;12.37;8.07;;;0.30;99.90;;;;;;5029738;28;20941;-72
2021/12/07 02:09:57;;;;;;;13.50;9.07;;;0.30;99.90;;;;;;5027971;28;20845;-73
2021/12/07 02:12:24;;;;;;;11.93;7.80;;;0.30;99.90;;;;;;5021395;28;20453;-72
2021/12/07 02:14:51;;;;;;;11.90;8.07;;;0.30;99.90;;;;;;5018387;28;20814;-73
2021/12/07 02:17:23;;;;;;;9.60;6.97;;;0.30;99.90;;;;;;5013001;28;20958;-72
2021/12/07 02:19:50;;;;;;;12.70;7.97;;;0.40;99.90;;;;;;5034623;28;20477;-72
2021/12/07 02:22:18;;;;;;;13.50;8.07;;;0.40;99.90;;;;;;5036528;28;20527;-72
2021/12/07 02:24:45;;;;;;;12.47;7.97;;;0.40;99.90;;;;;;5032858;28;20460;-72
2021/12/07 02:27:12;;;;;;;9.90;7.23;;;0.40;99.90;;;;;;5033018;28;20484;-72
2021/12/07 02:29:38;;;;;;;11.77;8.00;;;0.50;99.90;;;;;;5023945;28;21054;-72
2021/12/07 02:32:06;;;;;;;14.10;9.20;;;0.50;99.90;;;;;;5032596;28;20504;-72
2021/12/07 02:34:35;;;;;;;14.60;8.77;;;0.50;99.90;;;;;;5032611;28;20458;-72
2021/12/07 02:37:02;;;;;;;11.07;7.87;;;0.60;99.90;;;;;;5032485;28;20455;-73
2021/12/07 02:39:32;;;;;;;9.03;7.17;;;0.50;99.90;;;;;;5030144;28;20524;-72
2021/12/07 02:41:59;;;;;;;10.23;7.10;;;0.50;99.90;;;;;;5031350;28;20515;-72
2021/12/07 02:44:26;;;;;;;9.53;6.67;;;0.50;99.90;;;;;;5014345;28;20856;-72
2021/12/07 02:46:53;;;;;;;5.53;4.90;;;0.50;99.90;;;;;;5013932;28;20516;-72
2021/12/07 02:49:21;;;;;;;5.73;4.23;;;0.60;99.90;;;;;;5020781;28;20481;-72
2021/12/07 02:51:48;;;;;;;5.67;4.93;;;0.60;99.90;;;;;;5031755;28;20461;-72
2021/12/07 02:54:15;;;;;;;5.93;4.70;;;0.60;99.90;;;;;;5031857;28;20450;-72
2021/12/07 02:56:43;;;;;;;5.53;4.97;;;0.60;99.90;;;;;;5012133;28;20459;-72
2021/12/07 02:59:10;;;;;;;6.87;4.80;;;0.60;99.90;;;;;;5019615;28;20473;-72
2021/12/07 03:01:44;;;;;;;4.10;3.60;;;0.60;99.90;;;;;;5031839;28;20459;-72
2021/12/07 03:04:20;;;;;;;7.50;3.03;;;0.60;99.90;;;;;;5026211;28;20545;-72
2021/12/07 03:06:58;;;;;;;2.47;2.27;;;0.70;99.90;;;;;;5032223;28;20492;-72
2021/12/07 03:26:09;;;;;;;6.20;5.60;;;0.70;99.90;;;;;;5017082;28;20444;-72
2021/12/07 03:28:40;;;;;;;4.87;4.47;;;0.70;99.90;;;;;;5029299;28;20477;-72
2021/12/07 03:31:07;;;;;;;8.27;4.57;;;0.70;99.90;;;;;;5012320;28;20478;-72
2021/12/07 03:33:34;;;;;;;9.93;4.60;;;0.70;99.90;;;;;;5012252;28;20857;-72
2021/12/07 03:36:01;;;;;;;13.60;4.63;;;0.80;99.90;;;;;;5011205;28;20454;-72
2021/12/07 03:38:28;;;;;;;12.73;5.23;;;0.80;99.90;;;;;;5014960;28;20512;-72
2021/12/07 03:40:55;;;;;;;4.87;4.37;;;0.90;99.90;;;;;;5011973;28;20862;-72
2021/12/07 03:43:22;;;;;;;7.90;4.20;;;0.90;99.90;;;;;;5012316;28;20458;-72
2021/12/07 03:45:50;;;;;;;3.50;3.20;;;0.90;99.90;;;;;;5012768;28;20509;-72
2021/12/07 03:48:18;;;;;;;3.77;3.03;;;0.90;99.90;;;;;;5017536;28;20983;-72
2021/12/07 03:50:45;;;;;;;5.53;3.90;;;1.00;99.90;;;;;;5031644;28;21161;-72
2021/12/07 03:53:13;;;;;;;2.60;2.40;;;1.10;99.90;;;;;;5025615;28;20457;-73
2021/12/07 03:55:40;;;;;;;3.80;2.07;;;1.20;99.90;;;;;;5011698;28;20512;-72
2021/12/07 03:58:07;;;;;;;1.90;1.70;;;1.40;99.90;;;;;;5016665;28;20457;-72
2021/12/07 04:00:37;;;;;;;1.80;1.70;;;1.50;99.90;;;;;;5029844;28;20449;-73
2021/12/07 04:03:08;;;;;;;2.07;1.53;;;1.70;99.90;;;;;;5031564;28;20507;-73
2021/12/07 04:05:44;;;;;;;1.87;1.60;;;1.80;99.90;;;;;;5023162;28;20500;-72
2021/12/07 04:08:11;;;;;;;1.93;1.40;;;1.90;99.90;;;;;;5018370;28;20464;-72
2021/12/07 04:10:38;;;;;;;1.83;1.40;;;2.00;99.90;;;;;;5046644;28;20610;-72
2021/12/07 04:13:04;;;;;;;1.30;1.20;;;2.10;99.90;;;;;;5056283;28;20448;-72
2021/12/07 04:15:32;;;;;;;1.23;1.13;;;2.10;99.90;;;;;;5021337;28;20505;-73
2021/12/07 04:17:59;;;;;;;1.23;1.13;;;2.20;99.90;;;;;;5018899;28;20953;-72
2021/12/07 04:20:27;;;;;;;1.50;1.40;;;2.20;99.90;;;;;;5040392;28;20461;-72
2021/12/07 04:22:54;;;;;;;1.30;1.20;;;2.20;99.90;;;;;;5015871;28;20446;-73
2021/12/07 04:25:23;;;;;;;1.50;1.40;;;2.20;99.90;;;;;;5015821;28;20534;-74
2021/12/07 04:27:51;;;;;;;1.40;1.30;;;2.20;99.90;;;;;;5017468;28;20525;-73
2021/12/07 04:30:20;;;;;;;1.70;1.60;;;2.20;99.90;;;;;;5021636;28;20531;-73
2021/12/07 04:32:47;;;;;;;1.60;1.50;;;2.20;99.90;;;;;;5020986;28;20553;-74
2021/12/07 04:35:14;;;;;;;5.67;1.60;;;2.20;99.90;;;;;;5033637;28;20855;-74
2021/12/07 04:37:42;;;;;;;1.60;1.50;;;2.20;99.90;;;;;;5032076;28;20488;-73
2021/12/07 04:40:13;;;;;;;4.03;1.90;;;2.20;99.90;;;;;;5036084;22;20502;-67
2021/12/07 04:42:40;;;;;;;1.93;1.80;;;2.10;99.90;;;;;;4996650;28;20450;-67
2021/12/07 04:45:12;;;;;;;1.83;1.73;;;2.20;99.90;;;;;;5002842;28;20458;-67
2021/12/07 04:47:49;;;;;;;1.97;1.70;;;2.20;99.90;;;;;;4996903;28;20463;-66
2021/12/07 04:50:33;;;;;;;2.00;1.90;;;2.10;99.90;;;;;;5014156;28;20985;-67
2021/12/07 04:58:30;;;;;;;2.37;1.30;;;2.20;99.90;;;;;;4997862;28;20503;-67
2021/12/07 05:00:56;;;;;;;1.67;1.57;;;2.30;99.90;;;;;;5014049;28;20450;-67
2021/12/07 05:03:26;;;;;;;1.53;1.43;;;2.40;99.90;;;;;;5013501;28;20466;-67
2021/12/07 05:05:53;;;;;;;2.13;1.93;;;2.40;99.90;;;;;;5011624;28;20958;-67
2021/12/07 05:08:34;;;;;;;1.83;1.73;;;2.40;99.90;;;;;;5012198;28;20495;-67
2021/12/07 05:11:31;;;;;;;1.73;1.63;;;2.40;99.90;;;;;;5010709;28;20493;-67
2021/12/07 05:14:12;;;;;;;2.07;1.87;;;2.50;99.90;;;;;;4994101;28;20459;-67
2021/12/07 05:16:51;;;;;;;2.30;2.10;;;2.50;99.90;;;;;;4995272;28;20462;-67
2021/12/07 05:25:00;;;;;;;1.97;1.60;;;2.50;99.90;;;;;;4993754;28;20578;-67
2021/12/07 05:38:24;;;;;;;2.13;2.00;;;2.60;99.90;;;;;;4992836;28;20505;-66
2021/12/07 05:40:52;;;;;;;2.00;1.90;;;2.60;99.90;;;;;;4993722;28;20436;-67
2021/12/07 05:43:19;;;;;;;2.40;2.20;;;2.60;99.90;;;;;;4986400;28;20501;-68
2021/12/07 05:45:46;;;;;;;1.93;1.70;;;2.70;99.90;;;;;;4994475;28;20477;-67
2021/12/07 05:48:13;;;;;;;2.00;1.90;;;2.70;99.90;;;;;;5005201;28;20540;-68
2021/12/07 05:50:41;;;;;;;1.60;1.50;;;2.70;99.90;;;;;;5004224;28;20491;-67
2021/12/07 05:53:10;;;;;;;1.70;1.60;;;2.70;99.90;;;;;;5010919;28;20505;-67
2021/12/07 05:55:38;;;;;;;1.70;1.60;;;2.70;99.90;;;;;;4994068;28;20460;-67
2021/12/07 05:58:08;;;;;;;2.97;2.00;;;2.70;99.90;;;;;;4993276;28;20455;-67
2021/12/07 06:00:36;;;;;;;1.93;1.70;;;2.70;99.90;;;;;;4999652;28;20481;-68
2021/12/07 06:03:05;;;;;;;1.67;1.57;;;2.70;99.90;;;;;;4993591;28;20509;-67
2021/12/07 06:05:34;;;;;;;2.33;2.23;;;2.70;99.90;;;;;;4991728;28;20455;-67
2021/12/07 06:08:01;;;;;;;3.33;2.10;;;2.70;99.90;;;;;;4992091;28;20931;-67
2021/12/07 06:10:27;;;;;;;2.30;2.10;;;2.70;99.90;;;;;;5004687;28;20486;-67
2021/12/07 06:12:54;;;;;;;2.00;1.90;;;2.70;99.90;;;;;;5002897;28;20447;-68
2021/12/07 06:15:24;;;;;;;2.00;1.90;;;2.70;99.90;;;;;;4994308;28;20497;-67
2021/12/07 06:17:52;;;;;;;2.33;2.23;;;2.70;99.90;;;;;;4992595;28;20562;-68
2021/12/07 06:20:19;;;;;;;2.40;2.20;;;2.70;99.90;;;;;;5000575;28;20525;-68
2021/12/07 06:22:46;;;;;;;3.30;2.63;;;2.60;99.90;;;;;;4998683;28;20454;-68
2021/12/07 06:25:13;;;;;;;2.73;2.40;;;2.70;99.90;;;;;;5012279;28;20450;-69
2021/12/07 06:27:41;;;;;;;2.43;2.33;;;2.70;99.90;;;;;;5012327;28;20942;-68
2021/12/07 06:30:10;;;;;;;4.60;3.10;;;2.60;99.90;;;;;;5011842;28;20470;-68
2021/12/07 06:32:38;;;;;;;2.70;2.50;;;2.60;99.90;;;;;;4998279;28;20451;-68
2021/12/07 06:35:07;;;;;;;2.60;2.40;;;2.60;99.90;;;;;;5011788;28;20881;-68
2021/12/07 06:37:34;;;;;;;8.30;3.00;;;2.60;99.90;;;;;;4994931;28;20509;-68
2021/12/07 06:40:01;;;;;;;4.23;2.70;;;2.70;99.90;;;;;;4991290;28;20509;-67
2021/12/07 06:42:27;;;;;;;4.77;3.20;;;2.60;99.90;;;;;;4993933;28;20454;-68
2021/12/07 06:44:54;;;;;;;2.90;2.70;;;2.70;99.90;;;;;;4993640;28;20459;-68
2021/12/07 06:47:21;;;;;;;3.40;3.10;;;2.60;99.90;;;;;;4992744;28;20451;-68
2021/12/07 06:49:49;;;;;;;3.90;3.53;;;2.70;99.90;;;;;;4991855;28;20561;-68
2021/12/07 06:52:16;;;;;;;5.13;3.50;;;2.60;99.90;;;;;;4993690;28;20491;-68
2021/12/07 06:54:43;;;;;;;5.70;3.67;;;2.60;99.90;;;;;;5012156;28;20454;-67
2021/12/07 06:57:09;;;;;;;8.10;3.93;;;2.70;99.90;;;;;;5011824;28;20518;-68
2021/12/07 06:59:36;;;;;;;8.03;4.57;;;2.60;99.90;;;;;;5012120;28;20470;-66
2021/12/07 07:02:03;;;;;;;9.93;3.57;;;2.60;99.90;;;;;;5012129;28;20445;-66
2021/12/07 07:04:30;;;;;;;6.33;4.07;;;2.70;99.90;;;;;;4992206;28;20456;-67
2021/12/07 07:06:58;;;;;;;10.73;4.67;;;2.70;99.90;;;;;;4998061;28;20450;-66
2021/12/07 07:09:24;;;;;;;4.83;4.10;;;2.80;99.90;;;;;;5004068;28;20475;-66
2021/12/07 07:11:51;;;;;;;6.00;3.50;;;2.80;99.90;;;;;;4992180;28;20526;-66
2021/12/07 07:14:18;;;;;;;7.93;4.00;;;2.80;99.90;;;;;;5010308;28;20463;-66
2021/12/07 07:16:44;;;;;;;10.30;4.50;;;2.90;99.90;;;;;;5009711;28;20455;-66
2021/12/07 07:19:11;;;;;;;13.33;6.07;;;2.80;99.90;;;;;;5011372;28;20543;-66
2021/12/07 07:21:38;;;;;;;9.67;5.40;;;2.90;99.90;;;;;;5011706;28;20450;-65
2021/12/07 07:24:06;;;;;;;9.80;5.10;;;2.90;99.90;;;;;;5003874;28;20505;-65
2021/12/07 07:26:33;;;;;;;8.27;4.10;;;2.90;99.90;;;;;;4992189;28;20489;-65
2021/12/07 07:29:00;;;;;;;18.83;5.10;;;2.80;99.90;;;;;;4992856;28;20474;-65
2021/12/07 07:31:26;;;;;;;16.00;5.43;;;2.80;99.90;;;;;;4991455;28;20487;-65
2021/12/07 07:33:54;;;;;;;18.27;5.60;;;2.80;99.90;;;;;;5009060;28;20458;-65
2021/12/07 07:36:22;;;;;;;15.50;6.00;;;2.80;99.90;;;;;;5011398;28;20460;-65
2021/12/07 07:38:49;;;;;;;13.40;5.57;;;2.80;99.90;;;;;;4998031;28;20892;-65
2021/12/07 07:41:18;;;;;;;25.10;9.70;;;2.70;99.90;;;;;;4986718;28;20921;-66
2021/12/07 07:43:45;;;;;;;13.07;7.20;;;2.70;99.90;;;;;;5001906;28;20462;-65
2021/12/07 07:46:12;;;;;;;11.07;6.83;;;2.80;99.90;;;;;;5003703;28;21291;-65
2021/12/07 07:48:38;;;;;;;11.50;6.57;;;2.80;99.90;;;;;;4996162;28;20459;-66
2021/12/07 07:51:05;;;;;;;15.03;5.77;;;2.80;99.90;;;;;;4995133;28;20490;-69
2021/12/07 07:53:32;;;;;;;20.93;9.30;;;2.90;99.90;;;;;;4997018;28;20462;-66
2021/12/07 07:55:59;;;;;;;18.63;9.80;;;2.90;99.90;;;;;;4998849;28;20517;-66
2021/12/07 07:58:27;;;;;;;28.00;12.03;;;3.00;99.90;;;;;;4997712;28;20463;-66
2021/12/07 08:00:54;;;;;;;18.67;7.60;;;3.00;99.90;;;;;;4989799;28;20550;-65
2021/12/07 08:03:21;;;;;;;25.37;6.63;;;3.00;99.90;;;;;;4997422;28;20454;-66
2021/12/07 08:05:47;;;;;;;21.63;7.40;;;3.10;99.90;;;;;;4995822;28;20470;-66
2021/12/07 08:08:14;;;;;;;24.27;6.27;;;3.10;99.90;;;;;;4999582;28;20459;-66
2021/12/07 08:10:41;;;;;;;21.67;8.10;;;3.20;99.90;;;;;;5005345;28;20973;-65
2021/12/07 08:13:09;;;;;;;23.27;8.70;;;3.20;99.90;;;;;;4995931;28;20604;-66
2021/12/07 08:15:42;;;;;;;23.40;8.30;;;3.20;99.90;;;;;;4991593;28;20897;-66
2021/12/07 08:18:10;;;;;;;21.40;7.60;;;3.30;99.90;;;;;;5006484;28;20508;-68
2021/12/07 08:20:37;;;;;;;26.87;8.20;;;3.30;99.90;;;;;;4990452;28;20551;-67
2021/12/07 08:23:05;;;;;;;14.80;6.40;;;3.30;99.90;;;;;;4993801;28;20459;-67
2021/12/07 08:25:33;;;;;;;14.87;6.20;;;3.30;99.90;;;;;;4992050;28;20502;-67
2021/12/07 08:28:00;;;;;;;16.70;5.87;;;3.30;99.90;;;;;;4997564;28;21119;-67
2021/12/07 08:30:27;;;;;;;16.83;6.00;;;3.30;99.90;;;;;;4999541;28;20485;-67
2021/12/07 08:32:55;;;;;;;15.57;7.03;;;3.30;99.90;;;;;;5005071;28;20505;-66
2021/12/07 08:35:23;;;;;;;12.77;6.23;;;3.40;99.90;;;;;;4995023;28;20451;-66
2021/12/07 08:37:50;;;;;;;22.60;6.53;;;3.50;99.90;;;;;;4996105;28;20841;-66
2021/12/07 08:40:19;;;;;;;22.00;6.97;;;3.60;99.90;;;;;;4993039;28;21001;-66
2021/12/07 08:42:47;;;;;;;14.57;6.17;;;3.60;99.90;;;;;;5008891;28;20450;-66
2021/12/07 08:45:14;;;;;;;14.10;6.83;;;3.70;99.90;;;;;;5006884;28;20473;-66
2021/12/07 08:47:40;;;;;;;14.70;6.87;;;3.70;99.90;;;;;;5003017;28;20505;-66
2021/12/07 08:50:13;;;;;;;18.10;6.00;;;3.70;99.90;;;;;;4997247;28;20478;-65
2021/12/07 08:52:40;;;;;;;24.10;6.60;;;3.70;99.90;;;;;;5000958;28;21204;-65
2021/12/07 09:00:37;;;;;;;18.83;6.30;;;3.80;99.90;;;;;;4992268;28;20465;-65
2021/12/07 09:03:04;;;;;;;12.37;5.50;;;3.80;99.90;;;;;;4993532;28;20923;-65
2021/12/07 09:05:32;;;;;;;14.50;5.43;;;3.80;99.90;;;;;;4993325;28;20467;-65
2021/12/07 09:07:59;;;;;;;10.23;5.03;;;3.80;99.90;;;;;;4994407;28;20455;-66
2021/12/07 09:10:25;;;;;;;12.37;5.37;;;3.80;99.90;;;;;;5003817;28;20478;-65
2021/12/07 09:12:52;;;;;;;16.93;6.50;;;3.80;99.90;;;;;;4995619;28;21007;-66
2021/12/07 09:15:20;;;;;;;23.17;6.00;;;3.80;99.90;;;;;;5000866;28;20450;-66
2021/12/07 09:17:46;;;;;;;14.07;5.77;;;3.80;99.90;;;;;;4995946;28;20459;-65
2021/12/07 09:20:16;;;;;;;14.67;5.80;;;3.80;99.90;;;;;;5000040;28;20466;-66
2021/12/07 09:22:44;;;;;;;17.27;6.13;;;3.90;99.90;;;;;;4988473;28;20827;-66
2021/12/07 09:25:11;;;;;;;10.67;5.27;;;3.90;99.90;;;;;;4989626;28;20505;-65
2021/12/07 09:27:38;;;;;;;12.77;4.90;;;4.00;99.90;;;;;;4993906;28;20455;-66
2021/12/07 09:30:06;;;;;;;15.03;5.33;;;4.00;99.90;;;;;;4993351;28;20471;-65
2021/12/07 09:32:33;;;;;;;13.37;4.70;;;4.00;99.90;;;;;;5006925;28;20537;-66
2021/12/07 09:35:02;;;;;;;19.30;4.83;;;4.00;99.90;;;;;;4993514;28;20455;-65
2021/12/07 09:37:28;;;;;;;15.80;5.23;;;4.00;99.90;;;;;;5000643;28;20466;-66
2021/12/07 09:39:56;;;;;;;17.23;4.47;;;4.00;99.90;;;;;;4992257;28;20475;-66
2021/12/07 09:42:23;;;;;;;16.90;4.53;;;4.00;99.90;;;;;;5002259;28;20762;-65
2021/12/07 09:44:50;;;;;;;12.93;4.10;;;4.00;99.90;;;;;;4992303;28;20455;-65
2021/12/07 09:47:16;;;;;;;15.93;4.87;;;4.10;99.90;;;;;;4997982;28;20454;-66
2021/12/07 09:49:43;;;;;;;9.83;3.83;;;4.10;99.90;;;;;;4999997;28;20478;-66
2021/12/07 09:52:10;;;;;;;7.93;3.70;;;4.20;99.90;;;;;;5007846;28;20508;-66
2021/12/07 09:54:37;;;;;;;17.00;4.23;;;4.30;99.90;;;;;;4993526;28;20513;-65
2021/12/07 09:57:05;;;;;;;13.30;4.07;;;4.30;99.90;;;;;;4993514;28;20454;-66
2021/12/07 09:59:32;;;;;;;12.57;4.13;;;4.30;99.90;;;;;;4997777;28;21017;-65
2021/12/07 10:01:59;;;;;;;7.10;3.90;;;4.30;99.90;;;;;;4990391;28;20486;-65
2021/12/07 10:04:27;;;;;;;7.93;4.00;;;4.30;99.90;;;;;;4990954;28;20455;-65
2021/12/07 10:06:54;;;;;;;13.00;4.50;;;4.40;99.90;;;;;;5007449;28;20943;-66
2021/12/07 10:09:22;;;;;;;15.40;5.13;;;4.40;99.90;;;;;;4991921;28;20467;-66
2021/12/07 10:11:50;;;;;;;14.77;5.73;;;4.40;99.90;;;;;;5005925;28;20492;-66
2021/12/07 10:14:19;;;;;;;14.20;5.00;;;4.40;99.90;;;;;;5006786;28;21026;-66
2021/12/07 10:16:47;;;;;;;10.27;4.00;;;4.40;99.90;;;;;;4993827;28;20506;-65
2021/12/07 10:19:26;;;;;;;15.37;4.17;;;4.30;99.90;;;;;;4992532;28;20478;-65
2021/12/07 10:22:00;;;;;;;17.10;3.43;;;4.30;99.90;;;;;;5008175;28;20516;-65
2021/12/07 10:24:35;;;;;;;16.33;4.13;;;4.30;99.90;;;;;;5011234;28;21053;-65
2021/12/07 10:27:02;;;;;;;7.10;3.03;;;4.30;99.90;;;;;;5007607;28;20468;-65
2021/12/07 10:29:30;;;;;;;7.37;3.17;;;4.30;99.90;;;;;;4996605;28;20491;-65
2021/12/07 10:32:00;;;;;;;7.63;3.47;;;4.40;99.90;;;;;;4993548;28;20537;-65
2021/12/07 10:34:33;;;;;;;8.60;3.70;;;4.30;99.90;;;;;;4996064;28;21106;-65
2021/12/07 10:37:08;;;;;;;8.10;3.10;;;4.40;99.90;;;;;;4994831;28;20455;-65
2021/12/07 10:39:38;;;;;;;7.80;3.33;;;4.40;99.90;;;;;;4998870;28;20482;-65
2021/12/07 10:42:07;;;;;;;7.17;3.20;;;4.40;99.90;;;;;;5002714;28;21010;-66
2021/12/07 10:44:37;;;;;;;7.63;3.23;;;4.40;99.90;;;;;;4993400;28;20450;-65
2021/12/07 10:47:05;;;;;;;9.23;2.97;;;4.40;99.90;;;;;;4999453;28;20518;-65
2021/12/07 10:49:39;;;;;;;6.53;3.43;;;4.40;99.90;;;;;;4991584;28;20510;-65
2021/12/07 10:52:27;;;;;;;10.47;2.80;;;4.40;99.90;;;;;;4992382;28;20487;-65
2021/12/07 10:55:01;;;;;;;7.03;3.30;;;4.40;99.90;;;;;;4992642;28;20451;-65
2021/12/07 10:57:32;;;;;;;9.30;3.97;;;4.40;99.90;;;;;;5031709;23;21116;-70
2021/12/07 11:00:07;;;;;;;6.43;3.00;;;4.40;99.90;;;;;;5006392;28;20866;-71
2021/12/07 11:02:37;;;;;;;7.20;3.07;;;4.50;99.90;;;;;;4998631;28;20529;-70
2021/12/07 11:05:06;;;;;;;5.17;2.90;;;4.90;99.90;;;;;;4998490;28;20461;-71
2021/12/07 11:07:32;;;;;;;10.93;3.07;;;5.20;99.90;;;;;;5001610;28;20469;-71
2021/12/07 11:10:09;;;;;;;7.87;2.60;;;5.20;99.90;;;;;;5013658;28;20496;-71
2021/12/07 11:12:44;;;;;;;8.63;3.10;;;5.40;99.90;;;;;;5012763;28;21002;-70
2021/12/07 11:15:17;;;;;;;10.20;4.50;;;5.80;99.90;;;;;;4999843;28;20473;-71
2021/12/07 11:17:45;;;;;;;9.97;3.00;;;5.90;99.90;;;;;;5007370;28;20481;-70
2021/12/07 11:20:13;;;;;;;4.53;2.60;;;5.80;99.90;;;;;;4999911;28;20525;-70
2021/12/07 11:22:45;;;;;;;5.07;2.60;;;5.70;99.90;;;;;;5001090;28;20448;-69
2021/12/07 11:25:14;;;;;;;10.20;2.87;;;5.40;99.90;;;;;;4999270;28;20518;-70
2021/12/07 11:30:34;;;;;;;8.93;3.33;;;5.10;99.90;;;;;;4991046;28;20942;-70
2021/12/07 11:33:02;;;;;;;10.83;2.93;;;5.10;99.90;;;;;;4994584;28;20537;-70
2021/12/07 11:35:33;;;;;;;11.43;3.17;;;5.10;99.90;;;;;;4998458;28;20459;-70
2021/12/07 11:38:04;;;;;;;12.50;3.17;;;5.30;99.90;;;;;;5009379;28;20478;-70
2021/12/07 11:40:32;;;;;;;5.37;2.83;;;5.60;99.90;;;;;;5007914;28;20475;-70
2021/12/07 11:43:00;;;;;;;8.37;2.87;;;5.70;99.90;;;;;;5006027;28;20459;-70
2021/12/07 11:45:28;;;;;;;4.00;2.73;;;5.90;99.90;;;;;;5001922;28;20520;-70
2021/12/07 11:47:58;;;;;;;7.20;2.67;;;6.00;99.90;;;;;;5011436;28;20485;-71
2021/12/07 11:50:32;;;;;;;5.17;2.50;;;6.10;99.90;;;;;;5001138;28;20850;-70
2021/12/07 11:53:02;;;;;;;3.97;2.50;;;6.20;99.90;;;;;;5001632;28;20486;-70
2021/12/07 11:55:30;;;;;;;12.67;2.83;;;6.40;99.90;;;;;;5002958;28;20450;-71
2021/12/07 11:57:57;;;;;;;8.50;2.70;;;6.40;99.90;;;;;;5025501;28;20903;-71
2021/12/07 12:00:28;;;;;;;6.93;2.60;;;6.20;99.90;;;;;;5009381;28;20458;-71
2021/12/07 12:02:56;;;;;;;5.80;2.47;;;6.10;99.90;;;;;;5009614;28;20514;-70
2021/12/07 12:05:23;;;;;;;10.73;3.60;;;6.10;99.90;;;;;;4999313;28;20459;-73
2021/12/07 12:07:50;;;;;;;12.97;4.53;;;6.40;99.90;;;;;;5002976;28;20478;-71
2021/12/07 12:10:20;;;;;;;18.33;2.87;;;6.90;99.90;;;;;;5014159;28;20485;-71
2021/12/07 12:12:56;;;;;;;4.60;2.53;;;7.40;99.90;;;;;;4993565;28;20487;-72
2021/12/07 12:15:38;;;;;;;10.53;2.73;;;8.00;99.90;;;;;;5000210;28;20505;-71
2021/12/07 12:18:14;;;;;;;6.73;2.80;;;8.30;99.90;;;;;;5000258;28;20947;-72
2021/12/07 12:20:57;;;;;;;7.73;2.60;;;8.30;99.90;;;;;;5006430;28;20837;-72
2021/12/07 12:23:34;;;;;;;7.40;2.50;;;8.30;99.90;;;;;;5009550;28;20458;-72
2021/12/07 12:26:03;;;;;;;9.30;2.40;;;8.20;99.90;;;;;;5009710;28;20481;-71
2021/12/07 12:28:35;;;;;;;10.02;2.30;;;8.20;99.90;;;;;;5011338;28;20442;-72
2021/12/07 12:31:03;;;;;;;12.40;2.87;;;8.30;99.90;;;;;;5006635;28;20600;-71
2021/12/07 12:33:51;;;;;;;5.47;2.47;;;8.10;99.90;;;;;;5006269;28;20528;-73
2021/12/07 12:36:19;;;;;;;7.63;2.50;;;8.20;99.90;;;;;;5014906;28;20465;-73
2021/12/07 12:38:49;;;;;;;7.00;2.93;;;8.10;99.90;;;;;;5003208;28;20455;-74
2021/12/07 12:41:17;;;;;;;3.20;2.17;;;8.00;99.90;;;;;;5014941;28;20460;-73
2021/12/07 12:43:48;;;;;;;4.17;2.70;;;8.10;99.90;;;;;;5004046;28;20522;-73
2021/12/07 12:46:17;;;;;;;7.70;3.03;;;8.30;99.90;;;;;;4997695;28;20470;-74
2021/12/07 12:48:48;;;;;;;8.37;2.60;;;8.20;99.90;;;;;;5003770;28;21158;-73
2021/12/07 12:51:17;;;;;;;10.63;3.07;;;8.10;99.90;;;;;;4998858;28;20454;-73
2021/12/07 12:53:46;;;;;;;8.47;2.10;;;8.00;99.90;;;;;;5004707;28;20904;-73
2021/12/07 12:56:15;;;;;;;7.03;2.57;;;8.30;99.90;;;;;;5005922;28;20482;-73
2021/12/07 12:58:44;;;;;;;11.73;2.67;;;8.50;99.90;;;;;;5013501;28;20450;-72
2021/12/07 13:01:17;;;;;;;8.10;2.73;;;8.20;99.90;;;;;;4998286;28;20955;-72
2021/12/07 13:03:47;;;;;;;7.47;2.30;;;7.80;99.90;;;;;;5005601;28;20469;-71
2021/12/07 13:06:18;;;;;;;5.60;2.30;;;7.50;99.90;;;;;;5014021;28;20524;-72
2021/12/07 13:08:56;;;;;;;5.80;3.10;;;7.50;99.90;;;;;;5012783;28;20475;-72
2021/12/07 13:11:36;;;;;;;8.83;2.43;;;7.60;99.90;;;;;;5006948;28;20458;-72
2021/12/07 13:14:04;;;;;;;5.70;2.83;;;7.60;99.90;;;;;;5013149;28;20490;-72
2021/12/07 13:16:33;;;;;;;5.67;2.73;;;7.60;99.90;;;;;;5011126;28;20970;-71
2021/12/07 13:19:02;;;;;;;5.57;2.57;;;7.60;99.90;;;;;;5011762;28;20461;-72
2021/12/07 13:21:35;;;;;;;6.93;2.80;;;7.60;99.90;;;;;;5004807;28;20458;-72
2021/12/07 13:24:04;;;;;;;3.30;2.10;;;7.60;99.90;;;;;;5004436;28;20459;-71
2021/12/07 13:26:34;;;;;;;6.40;3.00;;;7.50;99.90;;;;;;4993827;28;20521;-72
2021/12/07 13:29:11;;;;;;;7.60;2.40;;;7.50;99.90;;;;;;4999441;28;20462;-71
2021/12/07 13:31:40;;;;;;;4.67;2.10;;;7.70;99.90;;;;;;5012131;28;20512;-72
2021/12/07 13:34:08;;;;;;;6.37;2.40;;;7.80;99.90;;;;;;5011049;28;20482;-72
2021/12/07 13:36:46;;;;;;;14.53;2.83;;;8.00;99.90;;;;;;4998415;28;20486;-73
2021/12/07 13:39:29;;;;;;;8.03;2.50;;;8.10;99.90;;;;;;4997949;28;20446;-72
2021/12/07 13:41:58;;;;;;;6.90;2.60;;;8.00;99.90;;;;;;5010432;28;20520;-73
2021/12/07 13:44:25;;;;;;;6.80;2.10;;;7.80;99.90;;;;;;4999510;28;20452;-72
2021/12/07 13:46:53;;;;;;;3.53;1.90;;;7.40;99.90;;;;;;4992998;28;21191;-72
2021/12/07 13:49:20;;;;;;;3.33;2.20;;;7.20;99.90;;;;;;5001329;28;20454;-72
2021/12/07 13:51:48;;;;;;;7.83;2.63;;;7.00;99.90;;;;;;5012103;28;20532;-71
2021/12/07 13:54:17;;;;;;;8.70;2.03;;;6.60;99.90;;;;;;4997006;28;20553;-72
2021/12/07 13:56:44;;;;;;;21.00;2.53;;;6.50;99.90;;;;;;5009833;28;20485;-72
2021/12/07 13:59:13;;;;;;;3.33;2.30;;;6.40;99.90;;;;;;5021255;28;20456;-72
2021/12/07 14:01:47;;;;;;;8.37;2.20;;;6.10;99.90;;;;;;4998998;28;20519;-71
2021/12/07 14:04:14;;;;;;;7.43;2.20;;;6.00;99.90;;;;;;5003152;28;20458;-72
2021/12/07 14:06:48;;;;;;;3.40;2.33;;;5.90;99.90;;;;;;5013309;28;20474;-72
2021/12/07 14:09:16;;;;;;;7.10;2.33;;;5.90;99.90;;;;;;5011481;28;20990;-72
2021/12/07 14:11:43;;;;;;;5.70;2.40;;;5.90;99.90;;;;;;4997853;28;20466;-71
2021/12/07 14:14:13;;;;;;;9.87;2.60;;;5.80;99.90;;;;;;4995774;28;20840;-71
2021/12/07 14:16:41;;;;;;;4.73;2.57;;;5.60;99.90;;;;;;5011318;28;20528;-71
2021/12/07 14:19:08;;;;;;;13.40;2.90;;;5.50;99.90;;;;;;5001161;28;20455;-70
2021/12/07 14:21:36;;;;;;;5.70;2.30;;;5.40;99.90;;;;;;5012190;28;20458;-71
2021/12/07 14:24:08;;;;;;;5.13;2.50;;;5.40;99.90;;;;;;5012233;28;20469;-71